sensor_id;sensor_type;location;lat;lon;timestamp;P1;durP1;ratioP1;P2;durP2;ratioP2
7737;SDS011;29398;45.328;5.558;2022-12-07T00:00:27;17.40;;;13.85;;
7737;SDS011;29398;45.328;5.558;2022-12-07T00:01:29;17.85;;;14.10;;
7737;SDS011;29398;45.328;5.558;2022-12-07T00:02:32;16.58;;;13.73;;
7737;SDS011;29398;45.328;5.558;2022-12-07T00:03:33;16.80;;;13.70;;
7737;SDS011;29398;45.328;5.558;2022-12-07T00:04:35;17.13;;;14.35;;
7737;SDS011;29398;45.328;5.558;2022-12-07T00:05:38;19.27;;;15.85;;
7737;SDS011;29398;45.328;5.558;2022-12-07T00:06:40;19.70;;;16.38;;
7737;SDS011;29398;45.328;5.558;2022-12-07T00:07:43;23.58;;;18.17;;
7737;SDS011;29398;45.328;5.558;2022-12-07T00:08:45;18.05;;;16.15;;
7737;SDS011;29398;45.328;5.558;2022-12-07T00:09:48;21.02;;;17.02;;
7737;SDS011;29398;45.328;5.558;2022-12-07T00:10:50;19.25;;;15.73;;
7737;SDS011;29398;45.328;5.558;2022-12-07T00:11:51;19.02;;;16.92;;
7737;SDS011;29398;45.328;5.558;2022-12-07T00:12:53;20.33;;;17.17;;
7737;SDS011;29398;45.328;5.558;2022-12-07T00:13:55;20.13;;;16.38;;
7737;SDS011;29398;45.328;5.558;2022-12-07T00:14:59;22.00;;;16.73;;
7737;SDS011;29398;45.328;5.558;2022-12-07T00:16:00;19.95;;;16.73;;
7737;SDS011;29398;45.328;5.558;2022-12-07T00:17:03;22.05;;;18.75;;
7737;SDS011;29398;45.328;5.558;2022-12-07T00:18:04;21.70;;;16.88;;
7737;SDS011;29398;45.328;5.558;2022-12-07T00:19:06;21.83;;;17.30;;
7737;SDS011;29398;45.328;5.558;2022-12-07T00:20:09;20.27;;;16.38;;
7737;SDS011;29398;45.328;5.558;2022-12-07T00:21:14;22.05;;;16.80;;
7737;SDS011;29398;45.328;5.558;2022-12-07T00:22:16;20.88;;;16.58;;
7737;SDS011;29398;45.328;5.558;2022-12-07T00:23:18;19.13;;;17.08;;
7737;SDS011;29398;45.328;5.558;2022-12-07T00:24:19;21.48;;;16.33;;
7737;SDS011;29398;45.328;5.558;2022-12-07T00:25:21;21.55;;;16.42;;
7737;SDS011;29398;45.328;5.558;2022-12-07T00:26:23;20.90;;;16.23;;
7737;SDS011;29398;45.328;5.558;2022-12-07T00:27:26;22.17;;;17.10;;
7737;SDS011;29398;45.328;5.558;2022-12-07T00:28:27;22.05;;;16.52;;
7737;SDS011;29398;45.328;5.558;2022-12-07T00:29:30;20.60;;;16.40;;
7737;SDS011;29398;45.328;5.558;2022-12-07T00:30:31;22.48;;;16.67;;
7737;SDS011;29398;45.328;5.558;2022-12-07T00:31:34;21.60;;;16.25;;
7737;SDS011;29398;45.328;5.558;2022-12-07T00:32:38;30.50;;;19.50;;
7737;SDS011;29398;45.328;5.558;2022-12-07T00:33:40;25.08;;;18.10;;
7737;SDS011;29398;45.328;5.558;2022-12-07T00:34:42;22.15;;;18.15;;
7737;SDS011;29398;45.328;5.558;2022-12-07T00:35:44;44.97;;;24.80;;
7737;SDS011;29398;45.328;5.558;2022-12-07T00:36:46;28.42;;;19.02;;
7737;SDS011;29398;45.328;5.558;2022-12-07T00:37:49;25.45;;;18.17;;
7737;SDS011;29398;45.328;5.558;2022-12-07T00:38:51;82.95;;;40.30;;
7737;SDS011;29398;45.328;5.558;2022-12-07T00:39:53;33.65;;;21.02;;
7737;SDS011;29398;45.328;5.558;2022-12-07T00:40:55;28.92;;;19.42;;
7737;SDS011;29398;45.328;5.558;2022-12-07T00:41:57;31.38;;;20.75;;
7737;SDS011;29398;45.328;5.558;2022-12-07T00:42:59;37.13;;;25.58;;
7737;SDS011;29398;45.328;5.558;2022-12-07T00:44:00;26.08;;;17.70;;
7737;SDS011;29398;45.328;5.558;2022-12-07T00:45:03;26.13;;;18.52;;
7737;SDS011;29398;45.328;5.558;2022-12-07T00:46:04;23.02;;;17.02;;
7737;SDS011;29398;45.328;5.558;2022-12-07T00:47:07;20.60;;;16.48;;
7737;SDS011;29398;45.328;5.558;2022-12-07T00:48:09;23.23;;;17.35;;
7737;SDS011;29398;45.328;5.558;2022-12-07T00:49:10;20.33;;;16.60;;
7737;SDS011;29398;45.328;5.558;2022-12-07T00:50:12;21.65;;;17.33;;
7737;SDS011;29398;45.328;5.558;2022-12-07T00:51:13;21.58;;;17.98;;
7737;SDS011;29398;45.328;5.558;2022-12-07T00:52:18;23.45;;;18.17;;
7737;SDS011;29398;45.328;5.558;2022-12-07T00:53:20;22.45;;;17.10;;
7737;SDS011;29398;45.328;5.558;2022-12-07T00:54:21;23.05;;;17.77;;
7737;SDS011;29398;45.328;5.558;2022-12-07T00:55:23;19.60;;;16.40;;
7737;SDS011;29398;45.328;5.558;2022-12-07T00:56:25;22.90;;;17.58;;
7737;SDS011;29398;45.328;5.558;2022-12-07T00:57:29;33.80;;;22.23;;
7737;SDS011;29398;45.328;5.558;2022-12-07T00:58:31;41.92;;;27.58;;
7737;SDS011;29398;45.328;5.558;2022-12-07T00:59:33;55.08;;;33.70;;
7737;SDS011;29398;45.328;5.558;2022-12-07T01:00:35;77.55;;;45.95;;
7737;SDS011;29398;45.328;5.558;2022-12-07T01:01:38;59.50;;;33.85;;
7737;SDS011;29398;45.328;5.558;2022-12-07T01:02:40;36.90;;;23.90;;
7737;SDS011;29398;45.328;5.558;2022-12-07T01:03:41;29.50;;;21.15;;
7737;SDS011;29398;45.328;5.558;2022-12-07T01:04:43;27.15;;;19.45;;
7737;SDS011;29398;45.328;5.558;2022-12-07T01:05:51;27.02;;;18.63;;
7737;SDS011;29398;45.328;5.558;2022-12-07T01:06:54;25.73;;;19.23;;
7737;SDS011;29398;45.328;5.558;2022-12-07T01:07:57;25.52;;;19.17;;
7737;SDS011;29398;45.328;5.558;2022-12-07T01:08:59;23.40;;;17.80;;
7737;SDS011;29398;45.328;5.558;2022-12-07T01:10:01;23.25;;;17.50;;
7737;SDS011;29398;45.328;5.558;2022-12-07T01:11:04;23.98;;;18.75;;
7737;SDS011;29398;45.328;5.558;2022-12-07T01:12:06;22.83;;;17.65;;
7737;SDS011;29398;45.328;5.558;2022-12-07T01:13:08;24.17;;;18.40;;
7737;SDS011;29398;45.328;5.558;2022-12-07T01:14:09;23.67;;;17.55;;
7737;SDS011;29398;45.328;5.558;2022-12-07T01:15:12;21.67;;;16.98;;
7737;SDS011;29398;45.328;5.558;2022-12-07T01:16:14;22.65;;;17.88;;
7737;SDS011;29398;45.328;5.558;2022-12-07T01:17:17;23.02;;;18.48;;
7737;SDS011;29398;45.328;5.558;2022-12-07T01:18:18;20.42;;;16.48;;
7737;SDS011;29398;45.328;5.558;2022-12-07T01:19:20;22.90;;;18.27;;
7737;SDS011;29398;45.328;5.558;2022-12-07T01:20:21;22.13;;;17.02;;
7737;SDS011;29398;45.328;5.558;2022-12-07T01:21:24;24.05;;;18.58;;
7737;SDS011;29398;45.328;5.558;2022-12-07T01:22:26;20.60;;;18.50;;
7737;SDS011;29398;45.328;5.558;2022-12-07T01:23:30;21.85;;;17.08;;
7737;SDS011;29398;45.328;5.558;2022-12-07T01:24:32;22.90;;;18.00;;
7737;SDS011;29398;45.328;5.558;2022-12-07T01:25:34;24.80;;;17.42;;
7737;SDS011;29398;45.328;5.558;2022-12-07T01:26:36;20.98;;;15.90;;
7737;SDS011;29398;45.328;5.558;2022-12-07T01:27:38;22.10;;;17.70;;
7737;SDS011;29398;45.328;5.558;2022-12-07T01:28:39;20.58;;;18.27;;
7737;SDS011;29398;45.328;5.558;2022-12-07T01:29:41;23.08;;;17.90;;
7737;SDS011;29398;45.328;5.558;2022-12-07T01:30:42;22.42;;;17.85;;
7737;SDS011;29398;45.328;5.558;2022-12-07T01:31:44;25.77;;;18.70;;
7737;SDS011;29398;45.328;5.558;2022-12-07T01:32:48;21.65;;;17.95;;
7737;SDS011;29398;45.328;5.558;2022-12-07T01:33:51;21.75;;;17.00;;
7737;SDS011;29398;45.328;5.558;2022-12-07T01:34:53;23.40;;;17.83;;
7737;SDS011;29398;45.328;5.558;2022-12-07T01:36:00;20.40;;;16.35;;
7737;SDS011;29398;45.328;5.558;2022-12-07T01:37:02;22.48;;;17.95;;
7737;SDS011;29398;45.328;5.558;2022-12-07T01:38:04;22.05;;;17.08;;
7737;SDS011;29398;45.328;5.558;2022-12-07T01:39:06;23.08;;;17.33;;
7737;SDS011;29398;45.328;5.558;2022-12-07T01:40:10;20.15;;;15.48;;
7737;SDS011;29398;45.328;5.558;2022-12-07T01:41:13;19.13;;;15.52;;
7737;SDS011;29398;45.328;5.558;2022-12-07T01:42:15;21.60;;;15.77;;
7737;SDS011;29398;45.328;5.558;2022-12-07T01:43:23;21.98;;;16.48;;
7737;SDS011;29398;45.328;5.558;2022-12-07T01:44:27;20.80;;;16.33;;
7737;SDS011;29398;45.328;5.558;2022-12-07T01:45:37;21.30;;;16.15;;
7737;SDS011;29398;45.328;5.558;2022-12-07T01:46:40;20.33;;;15.63;;
7737;SDS011;29398;45.328;5.558;2022-12-07T01:47:43;22.58;;;17.92;;
7737;SDS011;29398;45.328;5.558;2022-12-07T01:48:47;20.63;;;16.20;;
7737;SDS011;29398;45.328;5.558;2022-12-07T01:49:49;24.02;;;17.13;;
7737;SDS011;29398;45.328;5.558;2022-12-07T01:50:50;20.77;;;16.60;;
7737;SDS011;29398;45.328;5.558;2022-12-07T01:51:57;20.20;;;16.15;;
7737;SDS011;29398;45.328;5.558;2022-12-07T01:53:06;22.05;;;16.83;;
7737;SDS011;29398;45.328;5.558;2022-12-07T01:54:11;20.33;;;16.15;;
7737;SDS011;29398;45.328;5.558;2022-12-07T01:55:15;22.67;;;17.23;;
7737;SDS011;29398;45.328;5.558;2022-12-07T01:56:18;20.35;;;15.98;;
7737;SDS011;29398;45.328;5.558;2022-12-07T01:57:26;20.63;;;16.75;;
7737;SDS011;29398;45.328;5.558;2022-12-07T01:58:28;22.27;;;16.90;;
7737;SDS011;29398;45.328;5.558;2022-12-07T01:59:30;18.98;;;15.55;;
7737;SDS011;29398;45.328;5.558;2022-12-07T02:00:31;21.73;;;18.60;;
7737;SDS011;29398;45.328;5.558;2022-12-07T02:01:34;23.05;;;18.10;;
7737;SDS011;29398;45.328;5.558;2022-12-07T02:02:36;19.92;;;16.00;;
7737;SDS011;29398;45.328;5.558;2022-12-07T02:03:44;21.13;;;15.48;;
7737;SDS011;29398;45.328;5.558;2022-12-07T02:04:46;20.15;;;16.13;;
7737;SDS011;29398;45.328;5.558;2022-12-07T02:05:48;22.25;;;16.77;;
7737;SDS011;29398;45.328;5.558;2022-12-07T02:06:50;22.55;;;16.95;;
7737;SDS011;29398;45.328;5.558;2022-12-07T02:07:53;19.58;;;17.17;;
7737;SDS011;29398;45.328;5.558;2022-12-07T02:08:57;20.02;;;16.30;;
7737;SDS011;29398;45.328;5.558;2022-12-07T02:10:12;22.67;;;15.73;;
7737;SDS011;29398;45.328;5.558;2022-12-07T02:11:14;20.20;;;15.38;;
7737;SDS011;29398;45.328;5.558;2022-12-07T02:12:17;20.13;;;16.23;;
7737;SDS011;29398;45.328;5.558;2022-12-07T02:13:20;20.08;;;16.80;;
7737;SDS011;29398;45.328;5.558;2022-12-07T02:14:25;21.48;;;16.38;;
7737;SDS011;29398;45.328;5.558;2022-12-07T02:15:26;20.90;;;16.55;;
7737;SDS011;29398;45.328;5.558;2022-12-07T02:16:38;21.17;;;17.15;;
7737;SDS011;29398;45.328;5.558;2022-12-07T02:17:49;19.48;;;16.33;;
7737;SDS011;29398;45.328;5.558;2022-12-07T02:20:13;19.95;;;15.27;;
7737;SDS011;29398;45.328;5.558;2022-12-07T02:21:32;20.80;;;16.13;;
7737;SDS011;29398;45.328;5.558;2022-12-07T02:24:31;17.38;;;14.65;;
7737;SDS011;29398;45.328;5.558;2022-12-07T02:26:01;21.60;;;16.73;;
7737;SDS011;29398;45.328;5.558;2022-12-07T02:27:25;21.33;;;16.30;;
7737;SDS011;29398;45.328;5.558;2022-12-07T02:28:49;21.45;;;15.27;;
7737;SDS011;29398;45.328;5.558;2022-12-07T02:30:00;19.48;;;16.10;;
7737;SDS011;29398;45.328;5.558;2022-12-07T02:31:06;21.13;;;16.50;;
7737;SDS011;29398;45.328;5.558;2022-12-07T02:32:14;21.90;;;16.50;;
7737;SDS011;29398;45.328;5.558;2022-12-07T02:33:24;24.27;;;17.15;;
7737;SDS011;29398;45.328;5.558;2022-12-07T02:34:32;21.52;;;16.90;;
7737;SDS011;29398;45.328;5.558;2022-12-07T02:35:42;21.67;;;17.13;;
7737;SDS011;29398;45.328;5.558;2022-12-07T02:36:47;21.23;;;17.45;;
7737;SDS011;29398;45.328;5.558;2022-12-07T02:37:57;22.77;;;17.27;;
7737;SDS011;29398;45.328;5.558;2022-12-07T02:39:05;20.20;;;16.27;;
7737;SDS011;29398;45.328;5.558;2022-12-07T02:40:12;22.95;;;16.98;;
7737;SDS011;29398;45.328;5.558;2022-12-07T02:41:19;22.42;;;17.13;;
7737;SDS011;29398;45.328;5.558;2022-12-07T02:42:28;18.60;;;15.40;;
7737;SDS011;29398;45.328;5.558;2022-12-07T02:43:35;18.92;;;15.90;;
7737;SDS011;29398;45.328;5.558;2022-12-07T02:44:42;20.13;;;15.50;;
7737;SDS011;29398;45.328;5.558;2022-12-07T02:45:46;22.58;;;16.17;;
7737;SDS011;29398;45.328;5.558;2022-12-07T02:46:51;19.35;;;17.35;;
7737;SDS011;29398;45.328;5.558;2022-12-07T02:47:56;20.42;;;16.20;;
7737;SDS011;29398;45.328;5.558;2022-12-07T02:49:00;20.98;;;16.23;;
7737;SDS011;29398;45.328;5.558;2022-12-07T02:50:04;20.13;;;16.13;;
7737;SDS011;29398;45.328;5.558;2022-12-07T02:51:06;22.10;;;16.90;;
7737;SDS011;29398;45.328;5.558;2022-12-07T02:52:08;19.73;;;15.73;;
7737;SDS011;29398;45.328;5.558;2022-12-07T02:54:29;19.95;;;15.75;;
7737;SDS011;29398;45.328;5.558;2022-12-07T02:55:32;22.13;;;16.58;;
7737;SDS011;29398;45.328;5.558;2022-12-07T02:56:39;19.42;;;16.00;;
7737;SDS011;29398;45.328;5.558;2022-12-07T02:57:50;18.02;;;14.82;;
7737;SDS011;29398;45.328;5.558;2022-12-07T02:59:02;18.83;;;16.23;;
7737;SDS011;29398;45.328;5.558;2022-12-07T03:00:13;18.27;;;15.90;;
7737;SDS011;29398;45.328;5.558;2022-12-07T03:01:21;20.83;;;16.15;;
7737;SDS011;29398;45.328;5.558;2022-12-07T03:02:34;20.52;;;15.75;;
7737;SDS011;29398;45.328;5.558;2022-12-07T03:03:42;19.75;;;16.33;;
7737;SDS011;29398;45.328;5.558;2022-12-07T03:04:51;21.73;;;14.45;;
7737;SDS011;29398;45.328;5.558;2022-12-07T03:06:05;18.80;;;15.18;;
7737;SDS011;29398;45.328;5.558;2022-12-07T03:07:14;18.60;;;14.45;;
7737;SDS011;29398;45.328;5.558;2022-12-07T03:08:24;23.05;;;16.25;;
7737;SDS011;29398;45.328;5.558;2022-12-07T03:09:32;17.83;;;14.05;;
7737;SDS011;29398;45.328;5.558;2022-12-07T03:10:45;17.00;;;14.35;;
7737;SDS011;29398;45.328;5.558;2022-12-07T03:11:55;19.58;;;15.68;;
7737;SDS011;29398;45.328;5.558;2022-12-07T03:13:07;17.02;;;14.25;;
7737;SDS011;29398;45.328;5.558;2022-12-07T03:14:13;18.70;;;14.48;;
7737;SDS011;29398;45.328;5.558;2022-12-07T03:15:21;18.77;;;14.27;;
7737;SDS011;29398;45.328;5.558;2022-12-07T03:16:30;20.45;;;15.48;;
7737;SDS011;29398;45.328;5.558;2022-12-07T03:17:36;18.48;;;15.30;;
7737;SDS011;29398;45.328;5.558;2022-12-07T03:18:42;17.05;;;14.48;;
7737;SDS011;29398;45.328;5.558;2022-12-07T03:19:48;18.90;;;14.80;;
7737;SDS011;29398;45.328;5.558;2022-12-07T03:20:52;18.42;;;15.50;;
7737;SDS011;29398;45.328;5.558;2022-12-07T03:22:00;19.42;;;14.90;;
7737;SDS011;29398;45.328;5.558;2022-12-07T03:23:03;16.95;;;14.00;;
7737;SDS011;29398;45.328;5.558;2022-12-07T03:24:08;16.88;;;14.65;;
7737;SDS011;29398;45.328;5.558;2022-12-07T03:25:13;18.52;;;14.95;;
7737;SDS011;29398;45.328;5.558;2022-12-07T03:26:17;19.85;;;16.08;;
7737;SDS011;29398;45.328;5.558;2022-12-07T03:27:22;18.85;;;14.18;;
7737;SDS011;29398;45.328;5.558;2022-12-07T03:28:28;16.52;;;14.23;;
7737;SDS011;29398;45.328;5.558;2022-12-07T03:29:33;17.05;;;13.93;;
7737;SDS011;29398;45.328;5.558;2022-12-07T03:30:42;18.02;;;14.27;;
7737;SDS011;29398;45.328;5.558;2022-12-07T03:31:48;16.90;;;14.23;;
7737;SDS011;29398;45.328;5.558;2022-12-07T03:32:56;17.92;;;13.20;;
7737;SDS011;29398;45.328;5.558;2022-12-07T03:34:01;16.65;;;13.65;;
7737;SDS011;29398;45.328;5.558;2022-12-07T03:35:09;15.38;;;12.93;;
7737;SDS011;29398;45.328;5.558;2022-12-07T03:36:19;17.10;;;12.93;;
7737;SDS011;29398;45.328;5.558;2022-12-07T03:37:26;15.68;;;12.43;;
7737;SDS011;29398;45.328;5.558;2022-12-07T03:38:35;15.82;;;12.80;;
7737;SDS011;29398;45.328;5.558;2022-12-07T03:39:44;16.35;;;12.80;;
7737;SDS011;29398;45.328;5.558;2022-12-07T03:40:54;15.43;;;12.57;;
7737;SDS011;29398;45.328;5.558;2022-12-07T03:42:00;14.23;;;11.77;;
7737;SDS011;29398;45.328;5.558;2022-12-07T03:43:04;14.43;;;11.43;;
7737;SDS011;29398;45.328;5.558;2022-12-07T03:44:07;16.63;;;12.63;;
7737;SDS011;29398;45.328;5.558;2022-12-07T03:45:08;14.82;;;11.65;;
7737;SDS011;29398;45.328;5.558;2022-12-07T03:46:15;15.52;;;12.52;;
7737;SDS011;29398;45.328;5.558;2022-12-07T03:47:22;15.80;;;12.10;;
7737;SDS011;29398;45.328;5.558;2022-12-07T03:48:32;14.20;;;11.73;;
7737;SDS011;29398;45.328;5.558;2022-12-07T03:49:37;14.30;;;11.73;;
7737;SDS011;29398;45.328;5.558;2022-12-07T03:50:45;14.50;;;12.07;;
7737;SDS011;29398;45.328;5.558;2022-12-07T03:51:54;14.88;;;12.48;;
7737;SDS011;29398;45.328;5.558;2022-12-07T03:53:02;14.80;;;11.48;;
7737;SDS011;29398;45.328;5.558;2022-12-07T03:54:10;15.55;;;11.82;;
7737;SDS011;29398;45.328;5.558;2022-12-07T03:55:16;13.63;;;11.50;;
7737;SDS011;29398;45.328;5.558;2022-12-07T03:56:22;13.30;;;10.80;;
7737;SDS011;29398;45.328;5.558;2022-12-07T03:57:25;16.88;;;12.52;;
7737;SDS011;29398;45.328;5.558;2022-12-07T03:58:29;13.68;;;12.02;;
7737;SDS011;29398;45.328;5.558;2022-12-07T03:59:32;16.20;;;12.45;;
7737;SDS011;29398;45.328;5.558;2022-12-07T04:00:35;13.95;;;10.90;;
7737;SDS011;29398;45.328;5.558;2022-12-07T04:01:38;12.93;;;10.60;;
7737;SDS011;29398;45.328;5.558;2022-12-07T04:02:43;15.07;;;11.55;;
7737;SDS011;29398;45.328;5.558;2022-12-07T04:03:45;14.40;;;11.50;;
7737;SDS011;29398;45.328;5.558;2022-12-07T04:04:47;14.18;;;10.93;;
7737;SDS011;29398;45.328;5.558;2022-12-07T04:05:48;14.10;;;10.77;;
7737;SDS011;29398;45.328;5.558;2022-12-07T04:06:50;13.40;;;10.60;;
7737;SDS011;29398;45.328;5.558;2022-12-07T04:07:51;14.48;;;11.35;;
7737;SDS011;29398;45.328;5.558;2022-12-07T04:08:54;13.50;;;11.43;;
7737;SDS011;29398;45.328;5.558;2022-12-07T04:09:55;14.07;;;11.05;;
7737;SDS011;29398;45.328;5.558;2022-12-07T04:10:57;12.90;;;11.25;;
7737;SDS011;29398;45.328;5.558;2022-12-07T04:11:58;14.43;;;11.60;;
7737;SDS011;29398;45.328;5.558;2022-12-07T04:13:01;12.52;;;10.95;;
7737;SDS011;29398;45.328;5.558;2022-12-07T04:14:02;13.60;;;11.63;;
7737;SDS011;29398;45.328;5.558;2022-12-07T04:15:19;12.48;;;11.00;;
7737;SDS011;29398;45.328;5.558;2022-12-07T04:16:20;13.60;;;10.75;;
7737;SDS011;29398;45.328;5.558;2022-12-07T04:17:24;11.13;;;9.77;;
7737;SDS011;29398;45.328;5.558;2022-12-07T04:18:26;13.80;;;10.93;;
7737;SDS011;29398;45.328;5.558;2022-12-07T04:19:28;12.27;;;10.77;;
7737;SDS011;29398;45.328;5.558;2022-12-07T04:20:31;15.98;;;12.50;;
7737;SDS011;29398;45.328;5.558;2022-12-07T04:21:33;12.85;;;10.65;;
7737;SDS011;29398;45.328;5.558;2022-12-07T04:22:35;13.40;;;10.95;;
7737;SDS011;29398;45.328;5.558;2022-12-07T04:23:36;14.82;;;11.27;;
7737;SDS011;29398;45.328;5.558;2022-12-07T04:24:38;12.90;;;10.18;;
7737;SDS011;29398;45.328;5.558;2022-12-07T04:25:39;11.55;;;10.35;;
7737;SDS011;29398;45.328;5.558;2022-12-07T04:26:42;12.02;;;10.60;;
7737;SDS011;29398;45.328;5.558;2022-12-07T04:27:46;12.75;;;10.45;;
7737;SDS011;29398;45.328;5.558;2022-12-07T04:28:48;11.55;;;10.18;;
7737;SDS011;29398;45.328;5.558;2022-12-07T04:29:49;11.38;;;10.18;;
7737;SDS011;29398;45.328;5.558;2022-12-07T04:30:51;11.90;;;10.32;;
7737;SDS011;29398;45.328;5.558;2022-12-07T04:31:52;12.43;;;10.00;;
7737;SDS011;29398;45.328;5.558;2022-12-07T04:32:56;13.75;;;11.05;;
7737;SDS011;29398;45.328;5.558;2022-12-07T04:33:57;12.65;;;10.40;;
7737;SDS011;29398;45.328;5.558;2022-12-07T04:34:59;12.45;;;10.43;;
7737;SDS011;29398;45.328;5.558;2022-12-07T04:36:00;11.63;;;9.98;;
7737;SDS011;29398;45.328;5.558;2022-12-07T04:37:03;13.25;;;10.50;;
7737;SDS011;29398;45.328;5.558;2022-12-07T04:38:04;11.93;;;9.93;;
7737;SDS011;29398;45.328;5.558;2022-12-07T04:39:11;12.88;;;10.23;;
7737;SDS011;29398;45.328;5.558;2022-12-07T04:40:26;10.68;;;9.43;;
7737;SDS011;29398;45.328;5.558;2022-12-07T04:41:28;13.30;;;10.15;;
7737;SDS011;29398;45.328;5.558;2022-12-07T04:42:30;13.95;;;11.32;;
7737;SDS011;29398;45.328;5.558;2022-12-07T04:43:32;11.88;;;10.15;;
7737;SDS011;29398;45.328;5.558;2022-12-07T04:44:33;15.02;;;11.18;;
7737;SDS011;29398;45.328;5.558;2022-12-07T04:45:36;12.10;;;10.18;;
7737;SDS011;29398;45.328;5.558;2022-12-07T04:46:37;12.45;;;10.00;;
7737;SDS011;29398;45.328;5.558;2022-12-07T04:47:39;13.05;;;10.73;;
7737;SDS011;29398;45.328;5.558;2022-12-07T04:48:41;14.57;;;11.10;;
7737;SDS011;29398;45.328;5.558;2022-12-07T04:49:43;11.90;;;9.98;;
7737;SDS011;29398;45.328;5.558;2022-12-07T04:50:47;13.25;;;10.98;;
7737;SDS011;29398;45.328;5.558;2022-12-07T04:51:50;12.68;;;10.50;;
7737;SDS011;29398;45.328;5.558;2022-12-07T04:52:52;12.63;;;10.73;;
7737;SDS011;29398;45.328;5.558;2022-12-07T04:53:55;13.13;;;10.48;;
7737;SDS011;29398;45.328;5.558;2022-12-07T04:54:56;13.25;;;10.57;;
7737;SDS011;29398;45.328;5.558;2022-12-07T04:55:58;13.85;;;10.77;;
7737;SDS011;29398;45.328;5.558;2022-12-07T04:57:01;13.10;;;10.77;;
7737;SDS011;29398;45.328;5.558;2022-12-07T04:58:03;14.13;;;11.77;;
7737;SDS011;29398;45.328;5.558;2022-12-07T04:59:04;12.52;;;10.32;;
7737;SDS011;29398;45.328;5.558;2022-12-07T05:00:07;12.73;;;11.32;;
7737;SDS011;29398;45.328;5.558;2022-12-07T05:01:09;14.85;;;11.65;;
7737;SDS011;29398;45.328;5.558;2022-12-07T05:02:11;12.52;;;10.63;;
7737;SDS011;29398;45.328;5.558;2022-12-07T05:03:12;13.77;;;10.95;;
7737;SDS011;29398;45.328;5.558;2022-12-07T05:04:16;13.15;;;11.30;;
7737;SDS011;29398;45.328;5.558;2022-12-07T05:05:18;13.82;;;11.50;;
7737;SDS011;29398;45.328;5.558;2022-12-07T05:06:20;15.23;;;11.90;;
7737;SDS011;29398;45.328;5.558;2022-12-07T05:07:21;12.98;;;10.80;;
7737;SDS011;29398;45.328;5.558;2022-12-07T05:08:23;13.10;;;10.68;;
7737;SDS011;29398;45.328;5.558;2022-12-07T05:09:25;15.10;;;11.70;;
7737;SDS011;29398;45.328;5.558;2022-12-07T05:10:27;14.13;;;10.80;;
7737;SDS011;29398;45.328;5.558;2022-12-07T05:11:28;13.50;;;11.50;;
7737;SDS011;29398;45.328;5.558;2022-12-07T05:12:39;14.52;;;11.35;;
7737;SDS011;29398;45.328;5.558;2022-12-07T05:13:40;14.65;;;11.85;;
7737;SDS011;29398;45.328;5.558;2022-12-07T05:14:42;14.93;;;13.02;;
7737;SDS011;29398;45.328;5.558;2022-12-07T05:15:46;16.42;;;13.07;;
7737;SDS011;29398;45.328;5.558;2022-12-07T05:16:48;15.32;;;12.75;;
7737;SDS011;29398;45.328;5.558;2022-12-07T05:17:51;17.05;;;12.80;;
7737;SDS011;29398;45.328;5.558;2022-12-07T05:18:52;16.00;;;13.35;;
7737;SDS011;29398;45.328;5.558;2022-12-07T05:19:56;16.58;;;13.32;;
7737;SDS011;29398;45.328;5.558;2022-12-07T05:20:58;16.88;;;13.05;;
7737;SDS011;29398;45.328;5.558;2022-12-07T05:21:59;17.08;;;12.70;;
7737;SDS011;29398;45.328;5.558;2022-12-07T05:23:02;16.58;;;13.10;;
7737;SDS011;29398;45.328;5.558;2022-12-07T05:24:03;17.30;;;13.30;;
7737;SDS011;29398;45.328;5.558;2022-12-07T05:25:07;14.70;;;12.68;;
7737;SDS011;29398;45.328;5.558;2022-12-07T05:26:09;17.83;;;13.43;;
7737;SDS011;29398;45.328;5.558;2022-12-07T05:27:11;16.42;;;12.57;;
7737;SDS011;29398;45.328;5.558;2022-12-07T05:28:12;17.88;;;14.05;;
7737;SDS011;29398;45.328;5.558;2022-12-07T05:29:15;15.90;;;12.68;;
7737;SDS011;29398;45.328;5.558;2022-12-07T05:30:18;17.73;;;13.05;;
7737;SDS011;29398;45.328;5.558;2022-12-07T05:31:19;16.15;;;13.02;;
7737;SDS011;29398;45.328;5.558;2022-12-07T05:32:22;16.50;;;13.50;;
7737;SDS011;29398;45.328;5.558;2022-12-07T05:33:23;15.20;;;12.18;;
7737;SDS011;29398;45.328;5.558;2022-12-07T05:34:25;14.77;;;12.40;;
7737;SDS011;29398;45.328;5.558;2022-12-07T05:35:28;15.38;;;12.45;;
7737;SDS011;29398;45.328;5.558;2022-12-07T05:36:30;15.32;;;12.25;;
7737;SDS011;29398;45.328;5.558;2022-12-07T05:37:32;14.85;;;11.82;;
7737;SDS011;29398;45.328;5.558;2022-12-07T05:38:34;15.63;;;12.43;;
7737;SDS011;29398;45.328;5.558;2022-12-07T05:39:35;15.18;;;11.38;;
7737;SDS011;29398;45.328;5.558;2022-12-07T05:40:38;16.73;;;12.88;;
7737;SDS011;29398;45.328;5.558;2022-12-07T05:41:39;15.13;;;12.00;;
7737;SDS011;29398;45.328;5.558;2022-12-07T05:42:58;16.50;;;12.13;;
7737;SDS011;29398;45.328;5.558;2022-12-07T05:44:00;17.23;;;13.18;;
7737;SDS011;29398;45.328;5.558;2022-12-07T05:45:02;18.40;;;12.70;;
7737;SDS011;29398;45.328;5.558;2022-12-07T05:46:05;16.15;;;11.65;;
7737;SDS011;29398;45.328;5.558;2022-12-07T05:47:06;14.15;;;11.68;;
7737;SDS011;29398;45.328;5.558;2022-12-07T05:48:08;17.13;;;12.20;;
7737;SDS011;29398;45.328;5.558;2022-12-07T05:49:09;17.55;;;12.98;;
7737;SDS011;29398;45.328;5.558;2022-12-07T05:50:11;16.27;;;13.00;;
7737;SDS011;29398;45.328;5.558;2022-12-07T05:51:14;15.95;;;12.68;;
7737;SDS011;29398;45.328;5.558;2022-12-07T05:52:16;16.10;;;13.18;;
7737;SDS011;29398;45.328;5.558;2022-12-07T05:53:18;19.10;;;13.23;;
7737;SDS011;29398;45.328;5.558;2022-12-07T05:54:21;17.85;;;13.15;;
7737;SDS011;29398;45.328;5.558;2022-12-07T05:55:22;20.80;;;13.82;;
7737;SDS011;29398;45.328;5.558;2022-12-07T05:56:24;17.33;;;13.95;;
7737;SDS011;29398;45.328;5.558;2022-12-07T05:57:26;16.58;;;14.13;;
7737;SDS011;29398;45.328;5.558;2022-12-07T05:58:28;17.55;;;14.07;;
7737;SDS011;29398;45.328;5.558;2022-12-07T05:59:48;18.27;;;13.70;;
7737;SDS011;29398;45.328;5.558;2022-12-07T06:00:49;16.42;;;12.80;;
7737;SDS011;29398;45.328;5.558;2022-12-07T06:01:50;17.98;;;13.63;;
7737;SDS011;29398;45.328;5.558;2022-12-07T06:02:53;18.83;;;14.20;;
7737;SDS011;29398;45.328;5.558;2022-12-07T06:03:54;18.65;;;12.98;;
7737;SDS011;29398;45.328;5.558;2022-12-07T06:04:56;18.42;;;14.73;;
7737;SDS011;29398;45.328;5.558;2022-12-07T06:05:58;20.83;;;15.45;;
7737;SDS011;29398;45.328;5.558;2022-12-07T06:07:01;18.15;;;13.68;;
7737;SDS011;29398;45.328;5.558;2022-12-07T06:08:03;18.30;;;13.93;;
7737;SDS011;29398;45.328;5.558;2022-12-07T06:09:04;18.23;;;13.25;;
7737;SDS011;29398;45.328;5.558;2022-12-07T06:10:07;17.35;;;14.15;;
7737;SDS011;29398;45.328;5.558;2022-12-07T06:11:09;18.70;;;15.05;;
7737;SDS011;29398;45.328;5.558;2022-12-07T06:12:29;19.02;;;14.60;;
7737;SDS011;29398;45.328;5.558;2022-12-07T06:13:38;19.85;;;14.70;;
7737;SDS011;29398;45.328;5.558;2022-12-07T06:14:40;22.33;;;15.05;;
7737;SDS011;29398;45.328;5.558;2022-12-07T06:15:42;17.60;;;13.90;;
7737;SDS011;29398;45.328;5.558;2022-12-07T06:16:44;18.17;;;15.75;;
7737;SDS011;29398;45.328;5.558;2022-12-07T06:17:45;18.95;;;14.98;;
7737;SDS011;29398;45.328;5.558;2022-12-07T06:18:49;19.83;;;14.73;;
7737;SDS011;29398;45.328;5.558;2022-12-07T06:19:50;16.63;;;13.73;;
7737;SDS011;29398;45.328;5.558;2022-12-07T06:20:52;17.90;;;14.07;;
7737;SDS011;29398;45.328;5.558;2022-12-07T06:21:53;17.27;;;13.77;;
7737;SDS011;29398;45.328;5.558;2022-12-07T06:22:57;18.52;;;14.95;;
7737;SDS011;29398;45.328;5.558;2022-12-07T06:23:59;18.88;;;14.45;;
7737;SDS011;29398;45.328;5.558;2022-12-07T06:25:00;19.92;;;15.77;;